createdAt,value
2022-12-22T00:02:07.343Z,7.70
2022-12-22T00:04:53.071Z,7.60
2022-12-22T00:07:38.211Z,7.60
2022-12-22T00:10:23.949Z,7.70
2022-12-22T00:13:09.425Z,7.70
2022-12-22T00:15:54.985Z,7.70
2022-12-22T00:18:40.260Z,7.70
2022-12-22T00:21:27.808Z,7.70
2022-12-22T00:24:13.464Z,7.60
2022-12-22T00:26:59.262Z,7.70
2022-12-22T00:29:49.608Z,7.70
2022-12-22T00:32:34.888Z,7.80
2022-12-22T00:35:20.523Z,7.80
2022-12-22T00:38:05.781Z,7.80
2022-12-22T00:40:51.094Z,7.70
2022-12-22T00:43:36.492Z,7.70
2022-12-22T00:46:23.310Z,7.70
2022-12-22T00:49:09.478Z,7.80
2022-12-22T00:51:55.200Z,7.70
2022-12-22T00:54:41.748Z,7.70
2022-12-22T00:57:36.474Z,7.70
2022-12-22T01:00:24.138Z,7.70
2022-12-22T01:03:09.524Z,7.70
2022-12-22T01:05:54.753Z,7.70
2022-12-22T01:08:40.193Z,7.70
2022-12-22T01:11:26.609Z,7.70
2022-12-22T01:14:12.262Z,7.70
2022-12-22T01:16:57.931Z,7.70
2022-12-22T01:19:46.038Z,7.70
2022-12-22T01:22:34.648Z,7.70
2022-12-22T01:25:19.922Z,7.70
2022-12-22T01:28:05.272Z,7.80
2022-12-22T01:30:51.026Z,7.80
2022-12-22T01:33:36.280Z,7.70
2022-12-22T01:36:21.940Z,7.80
2022-12-22T01:39:07.081Z,7.80
2022-12-22T01:41:52.696Z,7.80
2022-12-22T01:44:37.975Z,7.80
2022-12-22T01:47:48.584Z,7.80
2022-12-22T01:50:45.669Z,7.80
2022-12-22T01:53:38.975Z,7.80
2022-12-22T01:56:25.209Z,7.80
2022-12-22T01:59:13.933Z,7.80
2022-12-22T02:02:01.123Z,7.80
2022-12-22T02:04:51.408Z,7.90
2022-12-22T02:08:04.174Z,7.90
2022-12-22T02:10:52.511Z,7.90
2022-12-22T02:13:56.003Z,7.90
2022-12-22T02:16:59.390Z,7.90
2022-12-22T02:20:15.919Z,7.90
2022-12-22T02:23:46.181Z,7.90
2022-12-22T02:26:49.648Z,8.00
2022-12-22T02:29:46.691Z,8.00
2022-12-22T02:32:32.001Z,8.00
2022-12-22T02:35:17.323Z,8.00
2022-12-22T02:38:21.692Z,8.00
2022-12-22T02:41:30.251Z,8.00
2022-12-22T02:45:05.261Z,8.00
2022-12-22T02:47:56.382Z,8.00
2022-12-22T02:50:50.347Z,8.00
2022-12-22T02:53:37.706Z,8.00
2022-12-22T02:56:27.827Z,8.00
2022-12-22T02:59:13.728Z,8.00
2022-12-22T03:02:01.834Z,8.00
2022-12-22T03:04:47.364Z,7.90
2022-12-22T03:07:33.155Z,7.90
2022-12-22T03:10:18.457Z,7.90
2022-12-22T03:13:03.848Z,7.90
2022-12-22T03:15:49.714Z,7.90
2022-12-22T03:18:35.423Z,7.80
2022-12-22T03:21:20.781Z,7.80
2022-12-22T03:24:06.181Z,7.90
2022-12-22T03:26:33.587Z,7.80
2022-12-22T03:29:00.486Z,7.80
2022-12-22T03:31:27.824Z,7.90
2022-12-22T03:33:54.940Z,7.90
2022-12-22T03:36:21.703Z,7.90
2022-12-22T03:38:48.432Z,8.00
2022-12-22T03:41:33.883Z,8.00
2022-12-22T03:44:19.498Z,8.00
2022-12-22T03:46:46.244Z,7.90
2022-12-22T03:49:13.212Z,7.90
2022-12-22T03:51:58.199Z,7.90
2022-12-22T03:54:26.469Z,7.90
2022-12-22T03:56:54.021Z,8.00
2022-12-22T03:59:21.162Z,7.90
2022-12-22T04:01:52.787Z,8.00
2022-12-22T04:04:21.964Z,8.00
2022-12-22T04:06:48.719Z,8.00
2022-12-22T04:09:15.561Z,8.10
2022-12-22T04:12:00.932Z,8.10
2022-12-22T04:14:33.402Z,8.10
2022-12-22T04:17:01.635Z,8.10
2022-12-22T04:19:28.464Z,8.10
2022-12-22T04:21:55.245Z,8.10
2022-12-22T04:24:22.416Z,8.10
2022-12-22T04:26:50.172Z,8.10
2022-12-22T04:29:17.232Z,8.10
2022-12-22T04:31:44.426Z,8.20
2022-12-22T04:34:11.269Z,8.20
2022-12-22T04:36:38.059Z,8.30
2022-12-22T04:39:04.802Z,8.30
2022-12-22T04:41:31.693Z,8.40
2022-12-22T04:43:58.572Z,8.40
2022-12-22T04:46:25.449Z,8.40
2022-12-22T04:48:57.878Z,8.40
2022-12-22T04:51:26.625Z,8.40
2022-12-22T04:53:53.305Z,8.40
2022-12-22T04:56:20.059Z,8.50
2022-12-22T04:58:46.805Z,8.50
2022-12-22T05:01:18.319Z,8.50
2022-12-22T05:03:45.818Z,8.50
2022-12-22T05:06:13.972Z,8.50
2022-12-22T05:08:41.044Z,8.60
2022-12-22T05:11:07.750Z,8.50
2022-12-22T05:13:34.479Z,8.50
2022-12-22T05:16:09.818Z,8.60
2022-12-22T05:18:37.550Z,8.60
2022-12-22T05:21:12.795Z,8.60
2022-12-22T05:23:39.788Z,8.60
2022-12-22T05:26:06.625Z,8.60
2022-12-22T05:28:33.580Z,8.60
2022-12-22T05:31:08.046Z,8.60
2022-12-22T05:33:35.158Z,8.60
2022-12-22T05:36:02.620Z,8.50
2022-12-22T05:38:29.488Z,8.50
2022-12-22T05:41:03.206Z,8.50
2022-12-22T05:43:31.129Z,8.50
2022-12-22T05:45:58.737Z,8.50
2022-12-22T05:48:30.834Z,8.50
2022-12-22T05:51:00.539Z,8.50
2022-12-22T05:53:27.526Z,8.50
2022-12-22T05:55:54.201Z,8.50
2022-12-22T05:58:20.857Z,8.50
2022-12-22T06:00:47.579Z,8.50
2022-12-22T06:03:14.501Z,8.50
2022-12-22T06:05:41.309Z,8.40
2022-12-22T06:08:08.059Z,8.40
2022-12-22T06:10:34.799Z,8.40
2022-12-22T06:13:01.655Z,8.40
2022-12-22T06:15:28.322Z,8.40
2022-12-22T06:17:55.052Z,8.30
2022-12-22T06:20:21.703Z,8.40
2022-12-22T06:22:48.504Z,8.40
2022-12-22T06:25:18.548Z,8.40
2022-12-22T06:27:47.307Z,8.30
2022-12-22T06:30:16.225Z,8.30
2022-12-22T06:32:43.156Z,8.30
2022-12-22T06:35:10.549Z,8.30
2022-12-22T06:37:37.452Z,8.30
2022-12-22T06:40:04.898Z,8.30
2022-12-22T06:42:50.585Z,8.30
2022-12-22T06:45:17.410Z,8.30
2022-12-22T06:47:44.163Z,8.40
2022-12-22T06:50:11.146Z,8.40
2022-12-22T06:52:38.227Z,8.40
2022-12-22T06:55:05.285Z,8.40
2022-12-22T06:57:32.041Z,8.50
2022-12-22T06:59:58.841Z,8.50
2022-12-22T07:02:25.927Z,8.50
2022-12-22T07:04:52.799Z,8.60
2022-12-22T07:07:19.463Z,8.60
2022-12-22T07:09:46.342Z,8.60
2022-12-22T07:12:13.290Z,8.60
2022-12-22T07:14:40.769Z,8.60
2022-12-22T07:17:09.234Z,8.60
2022-12-22T07:19:36.001Z,8.60
2022-12-22T07:22:03.700Z,8.60
2022-12-22T07:24:30.542Z,8.60
2022-12-22T07:26:57.331Z,8.60
2022-12-22T07:29:24.182Z,8.60
2022-12-22T07:31:51.284Z,8.60
2022-12-22T07:34:18.092Z,8.70
2022-12-22T07:36:44.889Z,8.70
2022-12-22T07:39:12.854Z,8.80
2022-12-22T07:41:58.688Z,8.80
2022-12-22T07:44:25.550Z,8.70
2022-12-22T07:46:52.304Z,8.70
2022-12-22T07:49:37.517Z,8.60
2022-12-22T07:52:04.616Z,8.60
2022-12-22T07:54:35.207Z,8.50
2022-12-22T07:57:04.854Z,8.50
2022-12-22T07:59:31.582Z,8.40
2022-12-22T08:01:58.452Z,8.40
2022-12-22T08:04:25.369Z,8.30
2022-12-22T08:06:52.435Z,8.30
2022-12-22T08:09:21.750Z,8.20
2022-12-22T08:11:49.643Z,8.20
2022-12-22T08:14:16.448Z,8.20
2022-12-22T08:16:43.308Z,8.20
2022-12-22T08:19:10.175Z,8.20
2022-12-22T08:21:36.907Z,8.10
2022-12-22T08:24:03.755Z,8.20
2022-12-22T08:26:39.559Z,8.20
2022-12-22T08:29:29.166Z,8.40
2022-12-22T08:31:56.413Z,8.30
2022-12-22T08:34:24.395Z,8.30
2022-12-22T08:36:55.430Z,8.30
2022-12-22T08:39:23.368Z,8.30
2022-12-22T08:41:50.289Z,8.40
2022-12-22T08:44:28.736Z,8.30
2022-12-22T08:46:57.627Z,8.40
2022-12-22T08:49:24.889Z,8.40
2022-12-22T08:51:52.083Z,8.50
2022-12-22T08:54:19.337Z,8.60
2022-12-22T08:56:46.798Z,8.70
2022-12-22T08:59:14.475Z,8.90
2022-12-22T09:01:44.362Z,8.80
2022-12-22T09:04:15.854Z,8.80
2022-12-22T09:06:42.724Z,8.70
2022-12-22T09:09:11.415Z,8.70
2022-12-22T09:11:39.592Z,8.80
2022-12-22T09:14:07.029Z,8.90
2022-12-22T09:16:34.573Z,9.10
2022-12-22T09:19:02.346Z,9.30
2022-12-22T09:21:29.712Z,9.20
2022-12-22T09:23:56.802Z,9.10
2022-12-22T09:26:25.503Z,8.90
2022-12-22T09:28:52.459Z,8.80
2022-12-22T09:31:20.826Z,8.70
2022-12-22T09:33:48.069Z,8.70
2022-12-22T09:36:17.377Z,8.60
2022-12-22T09:38:44.391Z,8.60
2022-12-22T09:41:17.964Z,8.60
2022-12-22T09:43:44.902Z,8.60
2022-12-22T09:46:25.537Z,8.50
2022-12-22T09:48:53.210Z,8.50
2022-12-22T09:51:26.748Z,8.50
2022-12-22T09:54:01.661Z,8.50
2022-12-22T09:56:29.695Z,8.50
2022-12-22T09:58:57.047Z,8.50
2022-12-22T10:01:51.404Z,8.50
2022-12-22T10:04:29.995Z,8.50
2022-12-22T10:07:08.776Z,8.40
2022-12-22T10:09:52.108Z,8.40
2022-12-22T10:12:28.359Z,8.40
2022-12-22T10:14:56.355Z,8.40
2022-12-22T10:17:34.194Z,8.40
2022-12-22T10:20:20.303Z,8.50
2022-12-22T10:22:58.981Z,8.50
2022-12-22T10:26:00.554Z,8.50
2022-12-22T10:28:35.179Z,8.50
2022-12-22T10:31:16.713Z,8.50
2022-12-22T10:33:47.471Z,8.50
2022-12-22T10:36:21.155Z,8.50
2022-12-22T10:38:56.680Z,8.50
2022-12-22T10:41:26.822Z,8.50
2022-12-22T10:43:59.647Z,8.60
2022-12-22T10:46:39.463Z,8.60
2022-12-22T10:49:13.522Z,8.60
2022-12-22T10:51:42.859Z,8.60
2022-12-22T10:54:09.931Z,8.60
2022-12-22T10:56:36.705Z,8.60
2022-12-22T10:59:03.977Z,8.60
2022-12-22T11:01:35.027Z,8.60
2022-12-22T11:04:25.138Z,8.60
2022-12-22T11:06:54.383Z,8.60
2022-12-22T11:09:33.562Z,8.60
2022-12-22T11:12:24.143Z,8.60
2022-12-22T11:14:56.767Z,8.70
2022-12-22T11:17:55.300Z,8.80
2022-12-22T11:20:35.036Z,8.90
2022-12-22T11:23:04.565Z,8.90
2022-12-22T11:25:56.586Z,8.90
2022-12-22T11:28:58.920Z,8.90
2022-12-22T11:32:12.979Z,8.90
2022-12-22T11:34:45.702Z,9.00
2022-12-22T11:37:38.500Z,9.10
2022-12-22T11:40:30.392Z,9.10
2022-12-22T11:42:59.821Z,9.30
2022-12-22T11:45:29.698Z,9.50
2022-12-22T11:48:04.339Z,9.60
2022-12-22T11:50:58.995Z,9.60
2022-12-22T11:53:50.313Z,9.60
2022-12-22T11:56:17.130Z,9.60
2022-12-22T11:58:52.698Z,9.60
2022-12-22T12:01:34.340Z,9.60
2022-12-22T12:04:27.056Z,9.60
2022-12-22T12:06:59.666Z,9.70
2022-12-22T12:09:41.384Z,9.70
2022-12-22T12:12:16.586Z,9.80
2022-12-22T12:14:58.908Z,9.80
2022-12-22T12:17:31.230Z,9.90
2022-12-22T12:20:08.092Z,9.90
2022-12-22T12:22:55.840Z,9.90
2022-12-22T12:25:43.829Z,9.90
2022-12-22T12:29:02.587Z,9.90
2022-12-22T12:31:37.796Z,10.00
2022-12-22T12:34:10.081Z,10.00
2022-12-22T12:36:50.318Z,10.00
2022-12-22T12:39:40.385Z,10.10
2022-12-22T12:42:15.996Z,10.10
2022-12-22T12:44:42.814Z,10.20
2022-12-22T12:47:33.262Z,10.10
2022-12-22T12:50:26.185Z,10.10
2022-12-22T12:52:52.819Z,10.00
2022-12-22T12:55:38.991Z,9.90
2022-12-22T12:58:10.721Z,9.80
2022-12-22T13:00:41.899Z,9.80
2022-12-22T13:04:01.049Z,9.80
2022-12-22T13:06:49.237Z,9.80
2022-12-22T13:09:49.089Z,9.80
2022-12-22T13:12:41.141Z,9.80
2022-12-22T13:15:27.385Z,9.80
2022-12-22T13:17:54.264Z,9.80
2022-12-22T13:20:33.492Z,9.80
2022-12-22T13:23:03.368Z,9.80
2022-12-22T13:25:53.321Z,9.70
2022-12-22T13:28:23.213Z,9.70
2022-12-22T13:30:59.659Z,9.70
2022-12-22T13:33:32.111Z,9.80
2022-12-22T13:35:59.870Z,9.80
2022-12-22T13:38:32.744Z,9.80
2022-12-22T13:41:03.388Z,9.80
2022-12-22T13:43:32.157Z,9.80
2022-12-22T13:46:02.113Z,9.80
2022-12-22T13:48:49.963Z,9.70
2022-12-22T13:51:27.460Z,9.70
2022-12-22T13:54:11.139Z,9.70
2022-12-22T13:56:46.611Z,9.70
2022-12-22T13:59:27.419Z,9.70
2022-12-22T14:02:18.903Z,9.80
2022-12-22T14:05:04.157Z,9.80
2022-12-22T14:07:32.293Z,9.80
2022-12-22T14:09:59.213Z,9.80
2022-12-22T14:12:39.681Z,9.80
2022-12-22T14:15:14.576Z,9.80
2022-12-22T14:17:46.222Z,9.70
2022-12-22T14:20:32.644Z,9.70
2022-12-22T14:23:03.465Z,9.60
2022-12-22T14:25:34.486Z,9.60
2022-12-22T14:28:02.374Z,9.60
2022-12-22T14:30:44.632Z,9.50
2022-12-22T14:33:37.700Z,9.50
2022-12-22T14:36:25.557Z,9.40
2022-12-22T14:38:53.623Z,9.30
2022-12-22T14:41:51.263Z,9.30
2022-12-22T14:44:30.608Z,9.20
2022-12-22T14:47:14.955Z,9.20
2022-12-22T14:50:01.421Z,9.20
2022-12-22T14:52:37.742Z,9.20
2022-12-22T14:55:07.186Z,9.20
2022-12-22T14:57:40.916Z,9.10
2022-12-22T15:00:08.285Z,9.10
2022-12-22T15:02:40.957Z,9.10
2022-12-22T15:05:28.974Z,9.10
2022-12-22T15:08:07.515Z,9.10
2022-12-22T15:10:44.163Z,9.10
2022-12-22T15:13:22.566Z,9.00
2022-12-22T15:15:52.514Z,9.00
2022-12-22T15:18:26.572Z,9.00
2022-12-22T15:20:54.898Z,9.00
2022-12-22T15:23:21.575Z,9.00
2022-12-22T15:25:48.463Z,9.00
2022-12-22T15:28:15.307Z,9.00
2022-12-22T15:30:42.901Z,9.00
2022-12-22T15:33:18.501Z,9.00
2022-12-22T15:35:46.157Z,9.00
2022-12-22T15:38:18.841Z,9.00
2022-12-22T15:40:45.953Z,8.90
2022-12-22T15:43:55.153Z,8.90
2022-12-22T15:46:03.850Z,8.90
2022-12-22T15:48:36.541Z,8.90
2022-12-22T15:51:05.807Z,9.00
2022-12-22T15:53:33.700Z,8.80
2022-12-22T15:56:01.116Z,8.80
2022-12-22T15:58:33.024Z,8.80
2022-12-22T16:01:00.136Z,8.80
2022-12-22T16:03:27.051Z,8.90
2022-12-22T16:05:55.749Z,8.80
2022-12-22T16:08:33.022Z,8.90
2022-12-22T16:10:59.904Z,8.80
2022-12-22T16:13:28.853Z,8.80
2022-12-22T16:15:57.620Z,8.80
2022-12-22T16:18:24.769Z,8.80
2022-12-22T16:20:52.039Z,8.80
2022-12-22T16:23:22.938Z,8.80
2022-12-22T16:25:54.266Z,8.70
2022-12-22T16:28:25.160Z,8.80
2022-12-22T16:30:52.435Z,8.70
2022-12-22T16:33:19.848Z,8.60
2022-12-22T16:35:46.644Z,8.60
2022-12-22T16:38:18.465Z,8.60
2022-12-22T16:40:48.994Z,8.60
2022-12-22T16:46:16.231Z,8.60
2022-12-22T16:48:59.071Z,8.60
2022-12-22T16:51:33.353Z,8.60
2022-12-22T16:54:01.301Z,8.60
2022-12-22T16:56:30.788Z,8.60
2022-12-22T16:58:57.825Z,8.70
2022-12-22T17:01:33.611Z,8.50
2022-12-22T17:04:13.994Z,8.60
2022-12-22T17:06:41.789Z,8.60
2022-12-22T17:09:17.399Z,8.60
2022-12-22T17:11:46.120Z,8.60
2022-12-22T17:14:31.495Z,8.60
2022-12-22T17:17:01.083Z,8.70
2022-12-22T17:19:27.989Z,8.60
2022-12-22T17:21:57.816Z,8.50
2022-12-22T17:24:28.037Z,8.50
2022-12-22T17:26:57.827Z,8.50
2022-12-22T17:29:25.676Z,8.50
2022-12-22T17:31:56.225Z,8.60
2022-12-22T17:34:23.278Z,8.60
2022-12-22T17:36:50.540Z,8.60
2022-12-22T17:39:21.252Z,8.60
2022-12-22T17:41:54.413Z,8.60
2022-12-22T17:44:25.369Z,8.60
2022-12-22T17:46:52.438Z,8.60
2022-12-22T17:49:21.970Z,8.60
2022-12-22T17:51:48.831Z,8.60
2022-12-22T17:54:25.095Z,8.60
2022-12-22T17:56:54.760Z,8.60
2022-12-22T17:59:21.508Z,8.60
2022-12-22T18:01:48.334Z,8.60
2022-12-22T18:04:15.274Z,8.60
2022-12-22T18:06:43.060Z,8.60
2022-12-22T18:09:20.065Z,8.50
2022-12-22T18:11:46.762Z,8.50
2022-12-22T18:14:14.388Z,8.50
2022-12-22T18:16:42.415Z,8.50
2022-12-22T18:19:09.449Z,8.40
2022-12-22T18:21:36.327Z,8.40
2022-12-22T18:24:03.926Z,8.30
2022-12-22T18:26:31.481Z,8.40
2022-12-22T18:28:58.289Z,8.40
2022-12-22T18:31:25.365Z,8.30
2022-12-22T18:33:52.598Z,8.30
2022-12-22T18:36:31.613Z,8.30
2022-12-22T18:39:00.389Z,8.30
2022-12-22T18:41:29.486Z,8.30
2022-12-22T18:43:56.319Z,8.30
2022-12-22T18:46:24.168Z,8.30
2022-12-22T18:48:50.976Z,8.40
2022-12-22T18:51:21.902Z,8.30
2022-12-22T18:53:50.648Z,8.20
2022-12-22T18:56:18.158Z,8.30
2022-12-22T18:58:46.137Z,8.30
2022-12-22T19:01:22.910Z,8.30
2022-12-22T19:03:50.757Z,8.30
2022-12-22T19:06:19.874Z,8.30
2022-12-22T19:08:48.138Z,8.30
2022-12-22T19:11:18.255Z,8.30
2022-12-22T19:13:47.986Z,8.30
2022-12-22T19:16:18.053Z,8.30
2022-12-22T19:18:44.955Z,8.40
2022-12-22T19:21:15.815Z,8.30
2022-12-22T19:23:42.906Z,8.50
2022-12-22T19:26:27.033Z,8.40
2022-12-22T19:28:57.791Z,8.50
2022-12-22T19:31:33.444Z,8.50
2022-12-22T19:34:04.241Z,8.50
2022-12-22T19:36:33.281Z,8.50
2022-12-22T19:39:04.736Z,8.50
2022-12-22T19:41:53.530Z,8.60
2022-12-22T19:44:25.178Z,8.50
2022-12-22T19:46:53.366Z,8.50
2022-12-22T19:49:23.466Z,8.50
2022-12-22T19:51:50.770Z,8.40
2022-12-22T19:54:19.404Z,8.50
2022-12-22T19:56:49.169Z,8.50
2022-12-22T19:59:29.663Z,8.50
2022-12-22T20:01:59.867Z,8.50
2022-12-22T20:04:27.252Z,8.50
2022-12-22T20:06:54.090Z,8.50
2022-12-22T20:09:20.747Z,8.50
2022-12-22T20:11:47.507Z,8.30
2022-12-22T20:14:18.586Z,8.40
2022-12-22T20:16:45.436Z,8.30
2022-12-22T20:19:15.517Z,8.40
2022-12-22T20:21:42.552Z,8.40
2022-12-22T20:24:20.630Z,8.40
2022-12-22T20:26:53.677Z,8.40
2022-12-22T20:29:20.661Z,8.40
2022-12-22T20:31:47.549Z,8.40
2022-12-22T20:34:14.283Z,8.40
2022-12-22T20:36:43.136Z,8.40
2022-12-22T20:39:16.373Z,8.40
2022-12-22T20:41:47.068Z,8.40
2022-12-22T20:44:17.914Z,8.40
2022-12-22T20:46:44.618Z,8.30
2022-12-22T20:49:15.348Z,8.30
2022-12-22T20:51:42.756Z,8.30
2022-12-22T20:54:13.913Z,8.30
2022-12-22T20:56:41.381Z,8.30
2022-12-22T20:59:21.416Z,8.40
2022-12-22T21:01:50.571Z,8.40
2022-12-22T21:04:18.351Z,8.40
2022-12-22T21:06:55.844Z,8.40
2022-12-22T21:09:23.757Z,8.40
2022-12-22T21:11:50.770Z,8.40
2022-12-22T21:14:17.791Z,8.40
2022-12-22T21:16:44.997Z,8.30
2022-12-22T21:19:17.174Z,8.30
2022-12-22T21:21:44.185Z,8.30
2022-12-22T21:24:10.915Z,8.30
2022-12-22T21:26:42.736Z,8.30
2022-12-22T21:29:15.440Z,8.30
2022-12-22T21:31:42.188Z,8.20
2022-12-22T21:34:10.875Z,8.30
2022-12-22T21:36:38.397Z,8.20
2022-12-22T21:39:24.699Z,8.30
2022-12-22T21:42:00.544Z,8.20
2022-12-22T21:44:28.966Z,8.20
2022-12-22T21:46:56.764Z,8.20
2022-12-22T21:49:29.126Z,8.20
2022-12-22T21:52:35.431Z,8.20
2022-12-22T21:55:08.240Z,8.20
2022-12-22T21:57:35.307Z,8.30
2022-12-22T22:00:15.587Z,8.20
2022-12-22T22:02:43.950Z,8.10
2022-12-22T22:05:21.148Z,8.00
2022-12-22T22:07:48.242Z,8.20
2022-12-22T22:10:17.644Z,8.20
2022-12-22T22:12:46.239Z,8.30
2022-12-22T22:15:14.446Z,8.10
2022-12-22T22:17:43.089Z,8.10
2022-12-22T22:20:16.963Z,8.20
2022-12-22T22:22:46.977Z,8.10
2022-12-22T22:25:17.520Z,8.10
2022-12-22T22:27:47.867Z,8.10
2022-12-22T22:30:19.570Z,7.90
2022-12-22T22:32:50.454Z,8.10
2022-12-22T22:35:21.336Z,8.10
2022-12-22T22:37:52.204Z,8.10
2022-12-22T22:40:21.941Z,8.10
2022-12-22T22:42:49.469Z,8.10
2022-12-22T22:45:25.928Z,8.10
2022-12-22T22:47:53.536Z,8.00
2022-12-22T22:50:23.225Z,8.00
2022-12-22T22:53:11.133Z,8.00
2022-12-22T22:55:39.796Z,8.10
2022-12-22T22:58:12.257Z,8.00
2022-12-22T23:00:43.429Z,8.00
2022-12-22T23:03:13.592Z,8.00
2022-12-22T23:05:45.280Z,8.00
2022-12-22T23:08:12.239Z,8.00
2022-12-22T23:10:41.946Z,8.00
2022-12-22T23:13:09.884Z,8.00
2022-12-22T23:15:37.323Z,8.10
2022-12-22T23:18:04.216Z,8.10
2022-12-22T23:20:31.566Z,8.10
2022-12-22T23:23:01.106Z,8.10
2022-12-22T23:25:28.003Z,8.00
2022-12-22T23:27:54.978Z,8.10
2022-12-22T23:30:26.189Z,8.00
2022-12-22T23:32:53.191Z,8.00
2022-12-22T23:35:19.935Z,8.00
2022-12-22T23:37:46.890Z,8.00
2022-12-22T23:40:51.675Z,8.00
2022-12-22T23:43:08.552Z,8.00
2022-12-22T23:45:37.334Z,8.00
2022-12-22T23:48:04.886Z,7.90
2022-12-22T23:50:32.132Z,8.10
2022-12-22T23:53:00.013Z,8.10
2022-12-22T23:55:27.043Z,8.10
2022-12-22T23:57:55.076Z,8.10
